createdAt,value
2022-09-12T00:01:51.573Z,14.14
2022-09-12T00:04:18.400Z,14.13
2022-09-12T00:06:45.329Z,14.15
2022-09-12T00:09:13.870Z,14.31
2022-09-12T00:11:42.964Z,14.24
2022-09-12T00:14:12.177Z,14.23
2022-09-12T00:16:39.561Z,14.17
2022-09-12T00:19:07.233Z,14.13
2022-09-12T00:21:35.738Z,14.24
2022-09-12T00:24:02.931Z,14.23
2022-09-12T00:26:29.776Z,14.21
2022-09-12T00:28:56.549Z,14.20
2022-09-12T00:31:25.358Z,14.29
2022-09-12T00:33:53.654Z,14.27
2022-09-12T00:36:22.992Z,14.28
2022-09-12T00:38:50.841Z,14.22
2022-09-12T00:41:21.279Z,14.20
2022-09-12T00:44:23.379Z,14.38
2022-09-12T00:47:13.804Z,14.40
2022-09-12T00:49:51.698Z,14.34
2022-09-12T00:52:21.255Z,14.31
2022-09-12T00:54:53.356Z,14.36
2022-09-12T00:57:22.523Z,14.37
2022-09-12T00:59:58.064Z,14.44
2022-09-12T01:02:24.908Z,14.41
2022-09-12T01:04:52.335Z,14.47
2022-09-12T01:07:19.865Z,14.46
2022-09-12T01:09:46.818Z,14.38
2022-09-12T01:12:15.062Z,14.42
2022-09-12T01:14:42.205Z,14.42
2022-09-12T01:17:13.225Z,14.50
2022-09-12T01:19:58.624Z,14.65
2022-09-12T01:22:46.500Z,14.54
2022-09-12T01:25:38.960Z,14.58
2022-09-12T01:28:29.455Z,14.56
2022-09-12T01:31:13.957Z,14.65
2022-09-12T01:33:46.638Z,14.65
2022-09-12T01:36:38.209Z,14.68
2022-09-12T01:39:09.760Z,14.69
2022-09-12T01:41:50.194Z,14.73
2022-09-12T01:44:29.234Z,14.71
2022-09-12T01:47:24.114Z,14.78
2022-09-12T01:50:13.645Z,14.83
2022-09-12T01:52:49.611Z,14.87
2022-09-12T01:55:20.118Z,14.79
2022-09-12T01:57:54.994Z,14.77
2022-09-12T02:00:21.940Z,14.70
2022-09-12T02:03:15.251Z,14.72
2022-09-12T02:05:50.254Z,14.70
2022-09-12T02:08:32.038Z,14.81
2022-09-12T02:11:06.362Z,14.76
2022-09-12T02:13:48.276Z,14.79
2022-09-12T02:16:19.235Z,14.71
2022-09-12T02:18:47.110Z,14.78
2022-09-12T02:21:14.096Z,14.70
2022-09-12T02:23:44.030Z,14.65
2022-09-12T02:26:17.319Z,14.80
2022-09-12T02:28:44.227Z,14.78
2022-09-12T02:31:23.991Z,14.68
2022-09-12T02:34:10.840Z,14.78
2022-09-12T02:36:55.049Z,14.76
2022-09-12T02:39:21.843Z,14.64
2022-09-12T02:41:51.339Z,14.86
2022-09-12T02:44:18.454Z,14.70
2022-09-12T02:46:49.016Z,14.86
2022-09-12T02:49:16.386Z,14.78
2022-09-12T02:51:43.159Z,14.68
2022-09-12T02:54:10.685Z,14.68
2022-09-12T02:56:42.447Z,14.56
2022-09-12T02:59:11.802Z,14.46
2022-09-12T03:01:47.387Z,14.61
2022-09-12T03:04:46.826Z,14.48
2022-09-12T03:07:37.668Z,14.55
2022-09-12T03:10:10.397Z,14.40
2022-09-12T03:12:52.237Z,14.57
2022-09-12T03:15:32.139Z,14.55
2022-09-12T03:18:27.167Z,14.51
2022-09-12T03:20:57.657Z,14.48
2022-09-12T03:23:29.174Z,14.47
2022-09-12T03:26:13.061Z,14.60
2022-09-12T03:28:39.973Z,14.35
2022-09-12T03:31:15.315Z,14.24
2022-09-12T03:33:42.357Z,14.35
2022-09-12T03:36:21.580Z,14.26
2022-09-12T03:38:48.438Z,14.27
2022-09-12T03:41:15.288Z,14.28
2022-09-12T03:43:42.108Z,14.22
2022-09-12T03:46:08.861Z,14.22
2022-09-12T03:48:35.975Z,14.25
2022-09-12T03:51:05.387Z,14.07
2022-09-12T03:53:32.555Z,14.21
2022-09-12T03:55:59.425Z,14.12
2022-09-12T03:58:30.573Z,14.28
2022-09-12T04:00:57.497Z,14.11
2022-09-12T04:03:24.241Z,14.17
2022-09-12T04:05:51.012Z,13.96
2022-09-12T04:08:17.758Z,14.09
2022-09-12T04:10:44.582Z,14.06
2022-09-12T04:13:11.300Z,14.18
2022-09-12T04:15:38.126Z,14.13
2022-09-12T04:18:06.099Z,14.00
2022-09-12T04:20:33.404Z,14.12
2022-09-12T04:23:00.061Z,14.04
2022-09-12T04:25:27.230Z,14.08
2022-09-12T04:27:53.932Z,13.93
2022-09-12T04:30:20.702Z,13.97
2022-09-12T04:32:47.441Z,13.85
2022-09-12T04:35:14.297Z,13.73
2022-09-12T04:37:41.050Z,13.60
2022-09-12T04:40:08.496Z,13.59
2022-09-12T04:42:35.251Z,13.60
2022-09-12T04:45:02.022Z,13.51
2022-09-12T04:47:28.739Z,13.43
2022-09-12T04:49:55.511Z,13.41
2022-09-12T04:52:22.264Z,13.53
2022-09-12T04:54:48.981Z,13.49
2022-09-12T04:57:15.862Z,13.56
2022-09-12T04:59:42.692Z,13.52
2022-09-12T05:02:09.464Z,13.44
2022-09-12T05:04:36.307Z,13.54
2022-09-12T05:07:04.316Z,13.41
2022-09-12T05:09:31.171Z,13.42
2022-09-12T05:12:04.226Z,13.36
2022-09-12T05:14:33.187Z,13.26
2022-09-12T05:17:01.672Z,13.37
2022-09-12T05:19:30.512Z,13.27
2022-09-12T05:21:57.300Z,13.29
2022-09-12T05:24:24.725Z,13.13
2022-09-12T05:26:51.879Z,13.03
2022-09-12T05:29:19.061Z,12.96
2022-09-12T05:31:45.931Z,12.98
2022-09-12T05:34:12.751Z,12.86
2022-09-12T05:36:39.486Z,12.79
2022-09-12T05:39:06.379Z,12.80
2022-09-12T05:41:34.192Z,12.81
2022-09-12T05:44:03.949Z,12.83
2022-09-12T05:46:40.040Z,12.84
2022-09-12T05:49:09.019Z,12.72
2022-09-12T05:51:40.937Z,12.92
2022-09-12T05:54:09.678Z,12.77
2022-09-12T05:56:43.411Z,13.07
2022-09-12T05:59:16.137Z,13.13
2022-09-12T06:01:43.050Z,13.08
2022-09-12T06:04:09.930Z,13.00
2022-09-12T06:06:41.883Z,13.08
2022-09-12T06:09:09.230Z,13.03
2022-09-12T06:11:37.415Z,12.88
2022-09-12T06:14:04.799Z,12.85
2022-09-12T06:16:33.277Z,13.08
2022-09-12T06:19:02.800Z,13.11
2022-09-12T06:21:34.542Z,13.16
2022-09-12T06:24:02.035Z,13.27
2022-09-12T06:26:29.319Z,13.18
2022-09-12T06:28:57.393Z,13.01
2022-09-12T06:31:30.712Z,13.16
2022-09-12T06:34:01.081Z,13.24
2022-09-12T06:36:36.509Z,13.29
2022-09-12T06:39:08.233Z,13.28
2022-09-12T06:41:35.042Z,13.20
2022-09-12T06:44:02.253Z,13.14
2022-09-12T06:46:29.297Z,13.09
2022-09-12T06:48:56.448Z,13.25
2022-09-12T06:51:23.318Z,13.25
2022-09-12T06:53:50.411Z,13.17
2022-09-12T06:56:20.091Z,13.23
2022-09-12T06:58:48.220Z,13.34
2022-09-12T07:01:19.595Z,13.62
2022-09-12T07:03:55.895Z,13.72
2022-09-12T07:06:29.845Z,13.54
2022-09-12T07:08:58.682Z,13.65
2022-09-12T07:11:27.935Z,13.83
2022-09-12T07:13:56.584Z,13.87
2022-09-12T07:16:23.892Z,13.78
2022-09-12T07:18:55.880Z,13.79
2022-09-12T07:21:23.099Z,13.84
2022-09-12T07:23:51.853Z,13.86
2022-09-12T07:26:19.044Z,13.93
2022-09-12T07:28:46.027Z,14.04
2022-09-12T07:31:16.102Z,14.25
2022-09-12T07:33:43.681Z,14.21
2022-09-12T07:36:16.083Z,14.36
2022-09-12T07:38:43.801Z,14.49
2022-09-12T07:41:15.381Z,14.47
2022-09-12T07:43:42.252Z,14.51
2022-09-12T07:46:09.651Z,14.62
2022-09-12T07:48:36.945Z,14.56
2022-09-12T07:51:06.265Z,14.77
2022-09-12T07:53:38.738Z,14.80
2022-09-12T07:56:06.829Z,14.88
2022-09-12T07:58:35.104Z,14.87
2022-09-12T08:01:09.718Z,14.97
2022-09-12T08:03:37.073Z,15.02
2022-09-12T08:06:15.658Z,14.99
2022-09-12T08:08:43.377Z,15.09
2022-09-12T08:11:12.934Z,15.20
2022-09-12T08:13:41.408Z,15.25
2022-09-12T08:16:18.800Z,15.34
2022-09-12T08:18:45.789Z,15.43
2022-09-12T08:21:17.133Z,15.41
2022-09-12T08:23:44.577Z,15.46
2022-09-12T08:26:12.171Z,15.63
2022-09-12T08:28:43.377Z,15.79
2022-09-12T08:31:14.958Z,16.00
2022-09-12T08:33:41.844Z,16.18
2022-09-12T08:36:28.187Z,16.30
2022-09-12T08:39:00.596Z,16.12
2022-09-12T08:41:39.097Z,16.25
2022-09-12T08:44:30.698Z,16.24
2022-09-12T08:47:09.461Z,15.64
2022-09-12T08:49:47.412Z,15.41
2022-09-12T08:52:22.401Z,15.66
2022-09-12T08:54:50.096Z,14.95
2022-09-12T08:57:17.280Z,14.65
2022-09-12T08:59:45.533Z,14.58
2022-09-12T09:02:27.250Z,14.63
2022-09-12T09:05:49.591Z,14.79
2022-09-12T09:08:26.860Z,14.60
2022-09-12T09:11:16.079Z,14.70
2022-09-12T09:14:38.287Z,14.59
2022-09-12T09:17:11.400Z,14.87
2022-09-12T09:19:42.039Z,14.94
2022-09-12T09:22:17.235Z,15.17
2022-09-12T09:24:48.530Z,14.95
2022-09-12T09:27:42.806Z,15.05
2022-09-12T09:30:17.891Z,14.88
2022-09-12T09:32:48.983Z,15.05
2022-09-12T09:35:41.587Z,15.10
2022-09-12T09:38:35.070Z,15.30
2022-09-12T09:41:42.890Z,15.35
2022-09-12T09:44:09.872Z,15.26
2022-09-12T09:46:36.674Z,15.01
2022-09-12T09:49:05.308Z,15.41
2022-09-12T09:51:37.513Z,15.45
2022-09-12T09:54:05.090Z,15.54
2022-09-12T09:56:37.203Z,15.93
2022-09-12T09:59:11.947Z,16.03
2022-09-12T10:02:14.137Z,16.21
2022-09-12T10:04:53.267Z,16.17
2022-09-12T10:07:21.858Z,16.39
2022-09-12T10:10:16.231Z,16.35
2022-09-12T10:12:43.783Z,16.25
2022-09-12T10:15:26.550Z,16.06
2022-09-12T10:17:55.725Z,16.03
2022-09-12T10:20:41.492Z,16.01
2022-09-12T10:23:37.814Z,16.10
2022-09-12T10:26:09.953Z,16.02
2022-09-12T10:28:54.465Z,16.07
2022-09-12T10:31:29.586Z,16.23
2022-09-12T10:33:58.884Z,16.29
2022-09-12T10:36:26.866Z,16.49
2022-09-12T10:39:00.698Z,16.49
2022-09-12T10:41:36.230Z,16.34
2022-09-12T10:44:08.162Z,16.35
2022-09-12T10:46:35.047Z,16.35
2022-09-12T10:49:24.425Z,16.42
2022-09-12T10:51:54.080Z,16.32
2022-09-12T10:54:24.740Z,16.07
2022-09-12T10:57:01.960Z,16.07
2022-09-12T11:00:06.060Z,16.20
2022-09-12T11:02:51.082Z,15.89
2022-09-12T11:05:46.589Z,16.28
2022-09-12T11:08:41.216Z,16.20
2022-09-12T11:11:14.410Z,16.25
2022-09-12T11:13:57.608Z,16.35
2022-09-12T11:16:43.193Z,16.39
2022-09-12T11:19:48.173Z,16.73
2022-09-12T11:22:36.187Z,16.86
2022-09-12T11:25:20.641Z,16.72
2022-09-12T11:28:25.128Z,17.00
2022-09-12T11:31:03.015Z,17.07
2022-09-12T11:33:39.671Z,16.82
2022-09-12T11:36:21.264Z,17.14
2022-09-12T11:38:53.024Z,17.59
2022-09-12T11:41:31.428Z,17.26
2022-09-12T11:44:16.487Z,17.20
2022-09-12T11:46:46.703Z,17.33
2022-09-12T11:49:26.830Z,17.61
2022-09-12T11:52:14.271Z,17.86
2022-09-12T11:54:40.995Z,18.04
2022-09-12T11:57:45.867Z,17.60
2022-09-12T12:00:19.051Z,17.32
2022-09-12T12:03:07.231Z,17.39
2022-09-12T12:05:45.071Z,17.36
2022-09-12T12:08:12.333Z,17.33
2022-09-12T12:10:41.673Z,17.76
2022-09-12T12:13:21.828Z,17.81
2022-09-12T12:15:52.081Z,17.59
2022-09-12T12:18:26.902Z,17.46
2022-09-12T12:20:54.817Z,17.57
2022-09-12T12:23:34.200Z,17.46
2022-09-12T12:26:03.701Z,17.63
2022-09-12T12:28:42.999Z,17.65
2022-09-12T12:31:11.389Z,17.51
2022-09-12T12:33:38.109Z,17.64
2022-09-12T12:36:09.588Z,17.69
2022-09-12T12:38:40.967Z,17.51
2022-09-12T12:41:16.908Z,17.30
2022-09-12T12:43:50.364Z,17.54
2022-09-12T12:46:22.522Z,17.60
2022-09-12T12:49:11.579Z,18.30
2022-09-12T12:51:53.616Z,19.30
2022-09-12T12:54:30.412Z,19.36
2022-09-12T12:57:23.120Z,20.18
2022-09-12T12:59:54.201Z,20.68
2022-09-12T13:02:25.790Z,20.16
2022-09-12T13:04:52.969Z,19.50
2022-09-12T13:07:30.246Z,18.83
2022-09-12T13:09:58.180Z,18.63
2022-09-12T13:12:27.716Z,19.21
2022-09-12T13:14:55.699Z,19.59
2022-09-12T13:17:33.767Z,18.82
2022-09-12T13:20:34.009Z,19.68
2022-09-12T13:23:00.923Z,20.66
2022-09-12T13:25:37.389Z,21.55
2022-09-12T13:28:15.034Z,21.88
2022-09-12T13:31:20.417Z,21.82
2022-09-12T13:33:49.705Z,21.19
2022-09-12T13:36:34.115Z,21.55
2022-09-12T13:39:10.503Z,20.44
2022-09-12T13:41:49.426Z,19.45
2022-09-12T13:44:18.849Z,19.02
2022-09-12T13:46:46.054Z,18.89
2022-09-12T13:49:31.411Z,18.52
2022-09-12T13:52:08.395Z,18.45
2022-09-12T13:54:40.375Z,18.01
2022-09-12T13:57:07.174Z,17.91
2022-09-12T13:59:41.182Z,17.70
2022-09-12T14:02:20.251Z,17.77
2022-09-12T14:05:07.381Z,17.92
2022-09-12T14:07:58.430Z,17.81
2022-09-12T14:10:34.765Z,17.61
2022-09-12T14:13:05.610Z,17.30
2022-09-12T14:15:57.495Z,17.39
2022-09-12T14:18:29.340Z,17.19
2022-09-12T14:20:57.721Z,17.27
2022-09-12T14:23:32.290Z,17.37
2022-09-12T14:26:02.621Z,17.50
2022-09-12T14:28:31.168Z,17.54
2022-09-12T14:30:58.966Z,17.39
2022-09-12T14:33:25.952Z,17.22
2022-09-12T14:36:26.939Z,17.25
2022-09-12T14:38:56.789Z,17.03
2022-09-12T14:41:33.102Z,17.01
2022-09-12T14:44:01.678Z,16.93
2022-09-12T14:46:47.718Z,17.10
2022-09-12T14:49:16.344Z,17.03
2022-09-12T14:51:51.181Z,16.98
2022-09-12T14:54:30.578Z,17.02
2022-09-12T14:57:04.226Z,17.01
2022-09-12T14:59:39.986Z,16.85
2022-09-12T15:02:22.855Z,16.91
2022-09-12T15:04:53.898Z,16.97
2022-09-12T15:07:35.963Z,17.47
2022-09-12T15:10:27.648Z,17.42
2022-09-12T15:13:09.833Z,16.90
2022-09-12T15:15:37.925Z,16.99
2022-09-12T15:18:06.739Z,16.69
2022-09-12T15:20:38.291Z,16.29
2022-09-12T15:23:07.790Z,16.09
2022-09-12T15:25:34.498Z,15.78
2022-09-12T15:28:02.122Z,15.69
2022-09-12T15:30:28.942Z,15.77
2022-09-12T15:32:55.765Z,15.76
2022-09-12T15:35:25.127Z,15.67
2022-09-12T15:37:52.455Z,16.93
2022-09-12T15:40:19.270Z,18.47
2022-09-12T15:42:46.127Z,19.23
2022-09-12T15:45:22.898Z,19.62
2022-09-12T15:47:49.736Z,20.12
2022-09-12T15:50:16.608Z,20.66
2022-09-12T15:52:43.611Z,21.21
2022-09-12T15:55:16.324Z,21.61
2022-09-12T15:57:43.208Z,21.63
2022-09-12T16:00:10.632Z,19.85
2022-09-12T16:02:40.604Z,18.90
2022-09-12T16:05:12.600Z,18.87
2022-09-12T16:07:39.373Z,19.14
2022-09-12T16:10:06.575Z,18.48
2022-09-12T16:12:33.340Z,18.13
2022-09-12T16:15:00.305Z,18.19
2022-09-12T16:17:27.254Z,17.48
2022-09-12T16:19:53.990Z,17.48
2022-09-12T16:22:20.743Z,18.05
2022-09-12T16:24:47.476Z,19.71
2022-09-12T16:27:14.318Z,20.35
2022-09-12T16:29:41.363Z,20.87
2022-09-12T16:32:08.309Z,21.40
2022-09-12T16:34:35.046Z,21.24
2022-09-12T16:37:02.454Z,21.35
2022-09-12T16:39:29.197Z,20.82
2022-09-12T16:41:55.981Z,19.32
2022-09-12T16:44:22.672Z,18.64
2022-09-12T16:46:51.170Z,17.55
2022-09-12T16:49:17.930Z,17.42
2022-09-12T16:51:47.518Z,16.87
2022-09-12T16:54:15.747Z,17.25
2022-09-12T16:56:42.575Z,16.71
2022-09-12T16:59:12.206Z,16.63
2022-09-12T17:01:39.033Z,16.50
2022-09-12T17:04:06.735Z,16.60
2022-09-12T17:06:33.966Z,16.58
2022-09-12T17:09:02.811Z,16.37
2022-09-12T17:11:36.491Z,16.42
2022-09-12T17:14:08.781Z,16.63
2022-09-12T17:16:40.768Z,16.52
2022-09-12T17:19:08.258Z,16.59
2022-09-12T17:21:35.401Z,16.61
2022-09-12T17:24:03.379Z,16.49
2022-09-12T17:26:30.294Z,16.40
2022-09-12T17:28:57.095Z,16.34
2022-09-12T17:31:23.853Z,16.57
2022-09-12T17:33:50.677Z,16.33
2022-09-12T17:36:18.337Z,15.97
2022-09-12T17:38:46.167Z,15.99
2022-09-12T17:41:16.115Z,15.63
2022-09-12T17:43:43.966Z,15.54
2022-09-12T17:46:10.750Z,15.47
2022-09-12T17:48:37.850Z,15.35
2022-09-12T17:51:25.054Z,15.28
2022-09-12T17:53:59.186Z,15.19
2022-09-12T17:56:28.069Z,15.24
2022-09-12T17:58:58.913Z,14.99
2022-09-12T18:01:45.923Z,14.86
2022-09-12T18:04:12.834Z,14.86
2022-09-12T18:06:40.879Z,14.68
2022-09-12T18:09:09.498Z,14.77
2022-09-12T18:11:36.423Z,14.53
2022-09-12T18:14:03.221Z,14.36
2022-09-12T18:16:31.514Z,14.42
2022-09-12T18:19:01.557Z,14.43
2022-09-12T18:21:29.209Z,14.44
2022-09-12T18:23:59.621Z,14.41
2022-09-12T18:26:27.979Z,14.39
2022-09-12T18:28:55.073Z,14.24
2022-09-12T18:31:24.431Z,14.13
2022-09-12T18:33:51.904Z,13.91
2022-09-12T18:36:19.356Z,14.08
2022-09-12T18:38:46.426Z,14.15
2022-09-12T18:41:15.814Z,13.82
2022-09-12T18:43:43.200Z,13.74
2022-09-12T18:46:12.477Z,13.55
2022-09-12T18:48:39.414Z,13.83
2022-09-12T18:51:20.767Z,13.72
2022-09-12T18:53:53.021Z,13.67
2022-09-12T18:56:21.150Z,13.46
2022-09-12T18:58:52.787Z,13.45
2022-09-12T19:01:23.747Z,13.42
2022-09-12T19:03:50.751Z,13.56
2022-09-12T19:06:29.191Z,13.44
2022-09-12T19:08:57.419Z,13.28
2022-09-12T19:11:26.007Z,13.29
2022-09-12T19:13:53.526Z,13.36
2022-09-12T19:16:22.962Z,13.39
2022-09-12T19:18:53.535Z,13.36
2022-09-12T19:21:23.157Z,13.19
2022-09-12T19:23:50.575Z,13.21
2022-09-12T19:26:19.053Z,13.05
2022-09-12T19:28:46.275Z,13.12
2022-09-12T19:31:15.636Z,13.17
2022-09-12T19:33:42.589Z,12.84
2022-09-12T19:36:27.607Z,12.81
2022-09-12T19:39:00.365Z,12.96
2022-09-12T19:41:27.625Z,12.89
2022-09-12T19:43:56.356Z,12.89
2022-09-12T19:46:24.348Z,12.95
2022-09-12T19:48:52.484Z,12.90
2022-09-12T19:51:20.625Z,13.02
2022-09-12T19:53:47.905Z,12.79
2022-09-12T19:56:15.055Z,12.72
2022-09-12T19:58:44.373Z,12.86
2022-09-12T20:01:16.829Z,12.94
2022-09-12T20:03:45.609Z,12.88
2022-09-12T20:06:14.670Z,12.70
2022-09-12T20:08:45.715Z,12.70
2022-09-12T20:11:17.754Z,12.74
2022-09-12T20:13:45.183Z,12.72
2022-09-12T20:16:21.665Z,12.52
2022-09-12T20:18:52.319Z,12.25
2022-09-12T20:21:20.878Z,12.39
2022-09-12T20:23:47.721Z,12.49
2022-09-12T20:26:14.915Z,12.56
2022-09-12T20:28:42.067Z,12.38
2022-09-12T20:31:14.764Z,12.43
2022-09-12T20:33:41.958Z,12.48
2022-09-12T20:36:13.576Z,12.46
2022-09-12T20:38:41.024Z,12.39
2022-09-12T20:41:12.804Z,12.32
2022-09-12T20:43:40.149Z,12.33
2022-09-12T20:46:11.658Z,12.17
2022-09-12T20:48:38.988Z,12.23
2022-09-12T20:51:06.766Z,12.18
2022-09-12T20:53:35.303Z,12.20
2022-09-12T20:56:03.565Z,12.16
2022-09-12T20:58:30.333Z,12.07
2022-09-12T21:00:57.368Z,12.19
2022-09-12T21:03:25.538Z,12.24
2022-09-12T21:05:52.713Z,12.30
2022-09-12T21:08:19.501Z,12.34
2022-09-12T21:10:46.283Z,12.39
2022-09-12T21:13:13.524Z,12.33
2022-09-12T21:15:41.286Z,12.48
2022-09-12T21:18:08.177Z,12.49
2022-09-12T21:20:34.984Z,12.53
2022-09-12T21:23:01.880Z,12.53
2022-09-12T21:25:29.598Z,12.54
2022-09-12T21:27:56.592Z,12.42
2022-09-12T21:30:23.338Z,12.56
2022-09-12T21:32:50.501Z,12.47
2022-09-12T21:35:17.348Z,12.56
2022-09-12T21:37:44.157Z,12.48
2022-09-12T21:40:11.139Z,12.34
2022-09-12T21:42:37.923Z,12.41
2022-09-12T21:45:05.133Z,12.63
2022-09-12T21:47:32.229Z,12.86
2022-09-12T21:49:59.014Z,12.76
2022-09-12T21:52:25.753Z,12.77
2022-09-12T21:54:52.476Z,12.67
2022-09-12T21:57:19.238Z,12.73
2022-09-12T21:59:46.024Z,12.74
2022-09-12T22:02:13.890Z,12.74
2022-09-12T22:04:40.668Z,12.84
2022-09-12T22:07:08.290Z,12.94
2022-09-12T22:09:35.334Z,12.79
2022-09-12T22:12:02.495Z,12.79
2022-09-12T22:14:29.734Z,12.80
2022-09-12T22:16:56.905Z,12.79
2022-09-12T22:19:23.716Z,12.77
2022-09-12T22:22:09.046Z,13.06
2022-09-12T22:24:35.910Z,13.00
2022-09-12T22:27:06.316Z,12.81
2022-09-12T22:29:34.182Z,12.98
2022-09-12T22:32:01.351Z,13.08
2022-09-12T22:34:28.837Z,12.93
2022-09-12T22:36:56.165Z,12.99
2022-09-12T22:39:23.661Z,12.73
2022-09-12T22:41:50.940Z,12.81
2022-09-12T22:44:17.902Z,12.90
2022-09-12T22:46:45.154Z,12.84
2022-09-12T22:49:12.828Z,12.94
2022-09-12T22:51:39.917Z,12.93
2022-09-12T22:54:06.932Z,12.90
2022-09-12T22:56:33.867Z,12.86
2022-09-12T22:59:01.266Z,12.92
2022-09-12T23:01:28.216Z,12.80
2022-09-12T23:03:55.566Z,12.87
2022-09-12T23:06:22.251Z,12.65
2022-09-12T23:08:49.033Z,12.80
2022-09-12T23:11:17.457Z,12.64
2022-09-12T23:13:46.105Z,12.72
2022-09-12T23:16:32.189Z,12.67
2022-09-12T23:18:59.075Z,12.66
2022-09-12T23:33:05.405Z,12.38
2022-09-12T23:35:32.291Z,12.29
2022-09-12T23:37:59.011Z,12.30
2022-09-12T23:40:25.871Z,12.25
2022-09-12T23:42:52.570Z,12.23
2022-09-12T23:45:19.362Z,12.26
2022-09-12T23:47:46.095Z,12.26
2022-09-12T23:50:12.869Z,12.26
2022-09-12T23:52:39.736Z,12.24
2022-09-12T23:55:07.602Z,12.26
2022-09-12T23:57:34.382Z,12.35
